createdAt,value
2022-10-09T00:05:06.921Z,4.40
2022-10-09T00:10:16.730Z,2.92
2022-10-09T00:15:24.732Z,3.85
2022-10-09T00:20:36.941Z,3.05
2022-10-09T00:25:55.801Z,2.75
2022-10-09T00:31:06.006Z,4.85
2022-10-09T00:36:21.828Z,4.28
2022-10-09T00:41:33.792Z,3.60
2022-10-09T00:46:48.047Z,3.30
2022-10-09T00:52:03.515Z,3.05
2022-10-09T00:57:13.744Z,2.58
2022-10-09T01:02:23.990Z,1.92
2022-10-09T01:07:43.257Z,3.47
2022-10-09T01:12:57.403Z,3.00
2022-10-09T01:18:12.830Z,3.17
2022-10-09T01:24:05.990Z,1.80
2022-10-09T01:29:20.144Z,1.83
2022-10-09T01:34:30.823Z,1.83
2022-10-09T01:39:43.332Z,4.35
2022-10-09T01:44:55.881Z,5.85
2022-10-09T01:50:10.434Z,2.33
2022-10-09T01:55:29.060Z,1.80
2022-10-09T02:00:46.996Z,1.90
2022-10-09T02:05:58.869Z,2.70
2022-10-09T02:11:08.527Z,4.68
2022-10-09T02:16:24.495Z,2.08
2022-10-09T02:21:46.080Z,2.45
2022-10-09T02:26:58.632Z,1.73
2022-10-09T02:32:10.794Z,7.30
2022-10-09T02:37:20.096Z,1.85
2022-10-09T02:42:30.319Z,2.78
2022-10-09T02:47:42.600Z,2.53
2022-10-09T02:52:52.807Z,2.00
2022-10-09T02:58:02.825Z,3.25
2022-10-09T03:03:16.491Z,2.65
2022-10-09T03:08:25.956Z,1.95
2022-10-09T03:13:36.517Z,3.40
2022-10-09T03:18:48.229Z,2.42
2022-10-09T03:23:58.312Z,3.28
2022-10-09T03:29:06.813Z,2.45
2022-10-09T03:34:19.818Z,1.15
2022-10-09T03:39:28.567Z,2.90
2022-10-09T03:44:38.835Z,1.77
2022-10-09T03:49:49.390Z,1.45
2022-10-09T03:54:59.485Z,1.77
2022-10-09T04:00:09.130Z,1.38
2022-10-09T04:05:22.503Z,1.20
2022-10-09T04:10:31.395Z,1.25
2022-10-09T04:15:39.247Z,1.25
2022-10-09T04:20:53.841Z,1.15
2022-10-09T04:26:03.284Z,2.08
2022-10-09T04:31:10.147Z,1.20
2022-10-09T04:36:19.595Z,1.10
2022-10-09T04:41:26.524Z,0.60
2022-10-09T04:46:33.810Z,1.08
2022-10-09T04:51:44.030Z,0.80
2022-10-09T04:56:51.914Z,2.53
2022-10-09T05:02:00.359Z,1.33
2022-10-09T05:07:11.413Z,1.95
2022-10-09T05:12:20.006Z,0.80
2022-10-09T05:17:28.798Z,1.02
2022-10-09T05:22:41.120Z,1.27
2022-10-09T05:27:49.554Z,0.77
2022-10-09T05:32:58.334Z,0.90
2022-10-09T05:38:08.962Z,3.00
2022-10-09T05:43:17.418Z,0.70
2022-10-09T05:48:26.325Z,1.30
2022-10-09T05:53:37.868Z,1.33
2022-10-09T05:58:45.695Z,1.45
2022-10-09T06:03:54.712Z,1.58
2022-10-09T06:09:05.658Z,1.20
2022-10-09T06:14:16.015Z,2.25
2022-10-09T06:19:25.256Z,1.25
2022-10-09T06:24:35.978Z,3.58
2022-10-09T06:29:44.861Z,2.33
2022-10-09T06:34:53.809Z,1.55
2022-10-09T06:40:05.944Z,1.30
2022-10-09T06:45:15.992Z,1.88
2022-10-09T06:50:25.186Z,1.58
2022-10-09T06:55:36.757Z,1.17
2022-10-09T07:00:45.669Z,6.53
2022-10-09T07:05:56.698Z,3.33
2022-10-09T07:11:14.588Z,3.13
2022-10-09T07:16:26.909Z,1.95
2022-10-09T07:21:37.426Z,1.25
2022-10-09T07:26:51.023Z,1.88
2022-10-09T07:32:00.539Z,1.20
2022-10-09T07:37:10.402Z,1.15
2022-10-09T07:42:26.742Z,1.35
2022-10-09T07:47:36.286Z,2.97
2022-10-09T07:52:46.609Z,2.47
2022-10-09T07:57:56.716Z,1.30
2022-10-09T08:03:05.595Z,2.47
2022-10-09T08:08:13.378Z,2.53
2022-10-09T08:13:25.746Z,1.65
2022-10-09T08:18:35.309Z,2.05
2022-10-09T08:23:45.497Z,2.50
2022-10-09T08:28:59.132Z,5.28
2022-10-09T08:34:08.780Z,1.60
2022-10-09T08:39:18.821Z,3.03
2022-10-09T08:44:33.129Z,1.25
2022-10-09T08:49:49.026Z,1.50
2022-10-09T08:54:58.621Z,3.22
2022-10-09T09:00:18.910Z,1.85
2022-10-09T09:05:33.496Z,1.48
2022-10-09T09:10:46.800Z,2.70
2022-10-09T09:16:05.033Z,1.85
2022-10-09T09:21:22.295Z,2.95
2022-10-09T09:26:33.375Z,3.03
2022-10-09T09:31:46.714Z,1.70
2022-10-09T09:37:00.264Z,1.95
2022-10-09T09:42:23.286Z,3.20
2022-10-09T09:47:40.595Z,4.97
2022-10-09T09:53:01.505Z,1.98
2022-10-09T09:58:14.926Z,3.67
2022-10-09T10:03:30.053Z,2.83
2022-10-09T10:08:41.042Z,3.65
2022-10-09T10:13:53.909Z,5.55
2022-10-09T10:19:07.464Z,7.78
2022-10-09T10:24:19.028Z,4.53
2022-10-09T10:29:30.974Z,8.43
2022-10-09T10:34:45.643Z,9.95
2022-10-09T10:39:58.028Z,5.50
2022-10-09T10:45:11.229Z,6.60
2022-10-09T10:50:24.281Z,6.95
2022-10-09T11:00:50.414Z,29.35
2022-10-09T11:06:10.165Z,15.18
2022-10-09T11:11:25.083Z,10.35
2022-10-09T11:16:48.028Z,25.30
2022-10-09T11:27:17.829Z,27.08
2022-10-09T11:32:31.400Z,33.22
2022-10-09T11:37:45.089Z,13.60
2022-10-09T11:42:57.895Z,16.77
2022-10-09T11:48:11.734Z,10.57
2022-10-09T11:53:25.221Z,14.02
2022-10-09T12:04:05.640Z,12.38
2022-10-09T12:09:27.512Z,11.40
2022-10-09T12:14:37.354Z,6.75
2022-10-09T12:19:50.052Z,6.03
2022-10-09T12:25:09.054Z,10.63
2022-10-09T12:30:27.001Z,11.77
2022-10-09T12:35:41.029Z,20.80
2022-10-09T12:40:54.088Z,17.75
2022-10-09T12:51:23.265Z,3.60
2022-10-09T12:56:39.933Z,3.53
2022-10-09T13:01:52.163Z,2.97
2022-10-09T13:07:03.747Z,20.83
2022-10-09T13:12:23.092Z,13.13
2022-10-09T13:17:36.899Z,5.22
2022-10-09T13:22:48.585Z,3.05
2022-10-09T13:28:02.376Z,2.40
2022-10-09T13:33:19.491Z,5.00
2022-10-09T13:38:34.655Z,8.30
2022-10-09T13:43:48.979Z,5.55
2022-10-09T13:49:00.374Z,5.47
2022-10-09T13:54:12.881Z,10.93
2022-10-09T13:59:27.024Z,6.45
2022-10-09T14:04:36.907Z,4.32
2022-10-09T14:09:47.638Z,4.55
2022-10-09T14:15:00.944Z,1.80
2022-10-09T16:44:40.778Z,1.52
2022-10-09T16:49:51.019Z,1.08
2022-10-09T16:55:01.516Z,0.60
2022-10-09T17:00:19.449Z,1.05
2022-10-09T17:05:30.452Z,1.92
2022-10-09T17:10:41.023Z,0.90
2022-10-09T17:15:55.805Z,0.90
2022-10-09T17:21:08.816Z,1.75
2022-10-09T17:26:18.791Z,0.98
2022-10-09T17:31:31.608Z,1.40
2022-10-09T17:36:40.946Z,1.43
2022-10-09T17:41:51.438Z,2.38
2022-10-09T17:47:07.049Z,2.30
2022-10-09T17:52:16.669Z,2.55
2022-10-09T17:57:27.408Z,0.85
2022-10-09T18:02:41.796Z,0.90
2022-10-09T18:07:51.809Z,0.90
2022-10-09T18:13:06.818Z,1.20
2022-10-09T18:18:24.544Z,4.63
2022-10-09T18:23:39.875Z,6.22
2022-10-09T18:28:55.122Z,1.15
2022-10-09T18:34:13.245Z,2.47
2022-10-09T18:39:28.062Z,1.63
2022-10-09T18:44:46.515Z,0.80
2022-10-09T18:50:07.639Z,0.88
2022-10-09T18:55:24.680Z,0.80
2022-10-09T19:00:40.167Z,3.30
2022-10-09T19:05:58.809Z,2.72
2022-10-09T19:11:13.327Z,1.23
2022-10-09T19:16:29.925Z,0.80
2022-10-09T19:21:50.782Z,1.05
2022-10-09T19:27:05.745Z,0.98
2022-10-09T19:32:23.867Z,0.80
2022-10-09T19:37:42.471Z,1.70
2022-10-09T19:42:56.773Z,2.65
2022-10-09T19:48:12.770Z,1.45
2022-10-09T19:53:31.587Z,0.90
2022-10-09T19:58:49.161Z,1.25
2022-10-09T20:04:06.201Z,1.17
2022-10-09T20:09:24.810Z,1.13
2022-10-09T20:14:39.756Z,0.80
2022-10-09T20:19:54.339Z,1.02
2022-10-09T20:25:14.951Z,1.40
2022-10-09T20:30:29.554Z,3.53
2022-10-09T20:35:47.028Z,0.98
2022-10-09T20:41:11.698Z,1.02
2022-10-09T20:46:26.626Z,1.30
2022-10-09T20:51:44.402Z,1.00
2022-10-09T20:57:03.563Z,1.42
2022-10-09T21:02:19.142Z,1.65
2022-10-09T21:07:34.451Z,1.73
2022-10-09T21:12:53.044Z,1.63
2022-10-09T21:18:07.486Z,3.05
2022-10-09T21:23:26.455Z,1.30
2022-10-09T21:28:44.044Z,1.13
2022-10-09T21:33:58.996Z,1.20
2022-10-09T21:39:14.765Z,2.30
2022-10-09T21:44:33.187Z,1.20
2022-10-09T21:49:47.333Z,1.13
2022-10-09T21:55:02.527Z,1.30
2022-10-09T22:00:21.867Z,1.20
2022-10-09T22:05:36.769Z,2.63
2022-10-09T22:10:52.842Z,2.97
2022-10-09T22:16:14.789Z,1.65
2022-10-09T22:21:29.618Z,2.70
2022-10-09T22:26:44.450Z,2.78
2022-10-09T22:32:02.333Z,1.17
2022-10-09T22:37:19.942Z,1.33
2022-10-09T22:42:34.308Z,2.22
2022-10-09T22:47:52.435Z,1.27
2022-10-09T22:53:07.950Z,1.27
2022-10-09T22:58:22.869Z,1.30
2022-10-09T23:03:40.597Z,1.90
2022-10-09T23:08:56.151Z,8.32
2022-10-09T23:14:11.163Z,1.33
2022-10-09T23:19:29.240Z,1.30
2022-10-09T23:24:43.489Z,1.30
2022-10-09T23:29:58.177Z,1.17
2022-10-09T23:35:16.612Z,2.15
2022-10-09T23:40:31.278Z,3.97
2022-10-09T23:45:50.009Z,2.17
2022-10-09T23:51:07.849Z,1.15
2022-10-09T23:56:27.598Z,1.90
